Time;durP1;ratioP1;P1;durP2;ratioP2;P2;SDS_P1;SDS_P2;PMS_P1;PMS_P2;Temp;Humidity;BMP_temperature;BMP_pressure;BME280_temperature;BME280_humidity;BME280_pressure;Samples;Min_cycle;Max_cycle;Signal;HPM_P1;HPM_P2
2021/09/22 00:01:34;;;;;;;15.57;12.57;;;;;;;14.42;52.25;95751.97;5018767;28;20448;-68
2021/09/22 00:04:02;;;;;;;15.70;12.27;;;;;;;14.09;53.32;95749.69;5024623;28;20486;-69
2021/09/22 00:06:29;;;;;;;14.37;12.33;;;;;;;14.33;52.84;95742.97;5024755;28;20499;-66
2021/09/22 00:08:56;;;;;;;14.63;12.60;;;;;;;14.56;52.91;95750.44;5013182;28;20445;-68
2021/09/22 00:11:24;;;;;;;16.23;12.03;;;;;;;14.27;53.15;95736.09;5009479;28;20440;-67
2021/09/22 00:13:51;;;;;;;14.77;12.67;;;;;;;14.33;52.43;95721.88;5011048;28;20532;-68
2021/09/22 00:16:21;;;;;;;17.63;13.93;;;;;;;14.17;53.45;95743.94;5024856;28;20832;-68
2021/09/22 00:18:48;;;;;;;15.60;13.23;;;;;;;14.52;52.50;95730.94;5021970;28;20519;-68
2021/09/22 00:21:15;;;;;;;16.10;14.17;;;;;;;14.42;52.75;95730.06;5014723;28;20440;-67
2021/09/22 00:23:42;;;;;;;15.80;13.40;;;;;;;14.39;52.62;95734.03;5023677;28;20907;-67
2021/09/22 00:26:09;;;;;;;20.23;14.33;;;;;;;14.37;53.34;95730.06;5013745;28;20440;-67
2021/09/22 00:28:37;;;;;;;17.53;14.20;;;;;;;14.22;54.06;95725.50;5014083;28;20448;-69
2021/09/22 00:31:04;;;;;;;16.47;14.77;;;;;;;14.13;54.24;95719.13;5026751;28;20455;-68
2021/09/22 00:33:32;;;;;;;16.23;13.67;;;;;;;14.46;52.93;95718.75;5021855;28;20445;-67
2021/09/22 00:35:59;;;;;;;18.83;15.13;;;;;;;14.27;53.57;95711.59;5021726;28;20440;-68
2021/09/22 00:38:27;;;;;;;20.63;14.67;;;;;;;14.49;53.74;95707.69;5014354;28;20456;-67
2021/09/22 00:40:54;;;;;;;20.57;14.20;;;;;;;14.11;53.97;95703.56;5013173;28;20459;-68
2021/09/22 00:43:21;;;;;;;17.90;14.20;;;;;;;14.30;53.74;95703.94;5012171;28;20480;-68
2021/09/22 00:45:49;;;;;;;18.20;15.13;;;;;;;13.98;54.21;95703.25;5028153;28;20999;-69
2021/09/22 00:48:16;;;;;;;18.50;15.03;;;;;;;14.17;54.00;95705.19;5024244;28;20454;-69
2021/09/22 00:50:50;;;;;;;17.43;14.20;;;;;;;14.04;54.20;95699.59;5022188;28;20437;-68
2021/09/22 00:53:18;;;;;;;17.17;15.20;;;;;;;13.98;54.25;95690.06;5015827;28;20441;-69
2021/09/22 00:55:45;;;;;;;17.83;14.60;;;;;;;13.93;53.80;95684.78;5011913;28;20820;-69
2021/09/22 00:58:27;;;;;;;18.80;14.90;;;;;;;13.90;54.38;95688.72;5012846;28;20487;-67
2021/09/22 01:00:54;;;;;;;16.90;14.27;;;;;;;14.01;53.96;95697.47;5017160;28;20453;-67
2021/09/22 01:03:22;;;;;;;15.03;13.40;;;;;;;14.01;54.10;95686.94;5024748;28;20522;-67
2021/09/22 01:05:51;;;;;;;17.50;15.00;;;;;;;13.92;54.04;95693.75;5025458;28;20552;-67
2021/09/22 01:08:19;;;;;;;17.70;14.50;;;;;;;13.55;55.51;95690.38;5030185;28;20466;-67
2021/09/22 01:10:47;;;;;;;16.83;13.93;;;;;;;13.61;55.20;95684.09;5017950;28;20440;-70
2021/09/22 01:13:16;;;;;;;16.60;14.37;;;;;;;13.77;55.21;95680.50;5013900;28;20544;-68
2021/09/22 01:15:43;;;;;;;19.40;14.80;;;;;;;13.18;56.46;95688.53;5015497;28;20436;-69
2021/09/22 01:18:17;;;;;;;18.10;15.20;;;;;;;13.54;55.76;95686.16;5012907;28;20440;-68
2021/09/22 01:20:49;;;;;;;19.50;15.30;;;;;;;13.48;55.08;95645.84;5012749;28;20463;-68
2021/09/22 01:23:18;;;;;;;18.17;15.30;;;;;;;13.45;55.32;95677.16;5019216;28;20487;-68
2021/09/22 01:25:48;;;;;;;17.03;14.77;;;;;;;13.58;54.75;95677.47;5013688;28;20451;-68
2021/09/22 01:28:21;;;;;;;18.33;14.97;;;;;;;13.17;56.36;95676.41;5004759;28;20466;-67
2021/09/22 01:30:50;;;;;;;19.67;15.57;;;;;;;13.45;54.96;95656.88;5026506;28;20467;-68
2021/09/22 01:33:22;;;;;;;19.60;15.40;;;;;;;13.35;55.21;95663.91;5024938;28;20432;-68
2021/09/22 01:35:59;;;;;;;16.60;13.87;;;;;;;13.52;54.82;95659.28;5027422;28;20500;-69
2021/09/22 01:38:29;;;;;;;24.80;14.93;;;;;;;13.73;54.72;95669.69;5021050;28;20436;-66
2021/09/22 01:41:25;;;;;;;15.80;14.10;;;;;;;13.66;54.16;95660.41;5013960;28;20484;-68
2021/09/22 01:43:55;;;;;;;17.47;14.60;;;;;;;13.90;53.37;95649.19;5021454;28;20478;-68
2021/09/22 01:46:39;;;;;;;17.53;13.83;;;;;;;13.62;53.30;95648.81;5022377;28;20449;-66
2021/09/22 01:49:06;;;;;;;18.07;12.70;;;;;;;13.55;53.32;95653.50;5011355;28;20449;-68
2021/09/22 01:51:34;;;;;;;14.90;12.60;;;;;;;13.53;52.58;95648.50;5026655;28;20463;-68
2021/09/22 01:54:09;;;;;;;15.00;11.93;;;;;;;13.71;52.10;95657.78;5021403;28;20823;-68
2021/09/22 01:56:40;;;;;;;13.10;11.70;;;;;;;13.74;51.83;95654.69;5013020;28;20826;-69
2021/09/22 01:59:07;;;;;;;13.40;11.87;;;;;;;13.58;52.31;95645.09;5011138;28;20441;-68
2021/09/22 02:01:58;;;;;;;15.03;12.17;;;;;;;13.44;52.48;95634.22;5026664;28;20456;-67
2021/09/22 02:04:38;;;;;;;15.10;11.40;;;;;;;13.60;52.09;95646.44;5027122;28;20977;-68
2021/09/22 02:07:09;;;;;;;12.80;11.30;;;;;;;13.32;52.65;95656.53;5024788;28;20440;-69
2021/09/22 02:09:37;;;;;;;13.30;11.90;;;;;;;13.52;52.02;95646.91;5027047;28;20537;-67
2021/09/22 02:12:06;;;;;;;14.83;12.30;;;;;;;13.34;52.72;95657.06;5009908;28;20873;-69
2021/09/22 02:14:33;;;;;;;15.00;12.07;;;;;;;13.46;52.76;95652.41;5010690;28;20523;-68
2021/09/22 02:17:02;;;;;;;15.60;11.73;;;;;;;13.21;53.12;95651.19;5024522;28;20449;-67
2021/09/22 02:19:35;;;;;;;12.27;10.97;;;;;;;13.39;52.68;95643.94;5022352;28;20507;-69
2021/09/22 02:22:33;;;;;;;14.67;12.57;;;;;;;13.39;52.32;95634.22;5020260;28;20572;-68
2021/09/22 02:25:09;;;;;;;16.33;11.87;;;;;;;13.34;52.27;95638.66;5014355;28;20450;-67
2021/09/22 02:27:37;;;;;;;14.90;10.97;;;;;;;13.32;51.69;95635.47;5009828;28;20476;-68
2021/09/22 02:30:10;;;;;;;14.43;11.23;;;;;;;13.45;51.73;95650.81;5010602;28;20560;-70
2021/09/22 02:32:39;;;;;;;13.33;11.33;;;;;;;13.51;51.27;95655.06;5020439;28;20440;-68
2021/09/22 02:35:09;;;;;;;11.33;10.13;;;;;;;13.49;51.54;95659.78;5014803;28;20556;-68
2021/09/22 02:37:56;;;;;;;14.80;11.77;;;;;;;13.48;51.27;95663.47;5012576;28;20449;-69
2021/09/22 02:40:44;;;;;;;13.20;11.20;;;;;;;13.49;50.81;95654.50;5010516;28;20445;-69
2021/09/22 02:43:12;;;;;;;13.03;10.63;;;;;;;13.20;50.88;95652.25;5022478;28;20481;-69
2021/09/22 02:45:39;;;;;;;14.57;10.40;;;;;;;12.66;51.26;95599.97;5017823;28;20491;-71
2021/09/22 02:48:07;;;;;;;13.40;11.10;;;;;;;13.41;50.78;95652.38;5016648;28;20674;-68
2021/09/22 02:50:36;;;;;;;17.63;10.60;;;;;;;12.94;50.89;95654.88;5010430;28;20499;-70
2021/09/22 02:53:04;;;;;;;12.10;10.63;;;;;;;13.15;50.95;95652.22;5009612;28;20440;-69
2021/09/22 02:55:31;;;;;;;13.53;11.60;;;;;;;13.36;50.66;95644.47;5011143;28;20445;-68
2021/09/22 02:57:58;;;;;;;14.87;10.83;;;;;;;13.44;49.64;95642.13;5009867;28;20472;-69
2021/09/22 03:00:26;;;;;;;15.00;11.03;;;;;;;13.61;49.43;95652.50;4997912;28;20444;-67
2021/09/22 03:02:55;;;;;;;13.00;10.87;;;;;;;13.36;49.16;95641.81;5027420;28;20472;-68
2021/09/22 03:05:23;;;;;;;12.70;10.53;;;;;;;13.20;49.08;95649.63;5021766;28;20476;-67
2021/09/22 03:07:50;;;;;;;12.83;10.03;;;;;;;13.40;48.16;95650.78;5028241;28;20453;-67
2021/09/22 03:10:19;;;;;;;14.13;11.37;;;;;;;13.31;48.47;95641.78;5018314;28;20480;-67
2021/09/22 03:12:47;;;;;;;12.07;10.53;;;;;;;13.46;48.26;95640.03;5009252;28;20436;-67
2021/09/22 03:15:14;;;;;;;11.67;10.43;;;;;;;13.52;47.70;95641.63;5009316;28;20544;-67
2021/09/22 03:17:41;;;;;;;13.30;11.00;;;;;;;13.32;48.39;95633.63;5008851;28;20440;-68
2021/09/22 03:20:09;;;;;;;11.87;10.67;;;;;;;13.56;47.89;95626.91;5024040;28;20450;-66
2021/09/22 03:22:37;;;;;;;12.63;10.30;;;;;;;13.74;47.34;95638.88;5024263;28;20499;-68
2021/09/22 03:25:16;;;;;;;13.13;11.30;;;;;;;13.47;47.79;95628.44;5020933;28;20452;-68
2021/09/22 03:27:45;;;;;;;13.77;10.90;;;;;;;13.30;47.90;95637.56;5014997;28;20537;-68
2021/09/22 03:30:15;;;;;;;12.80;10.53;;;;;;;13.41;47.44;95633.94;5009354;28;20548;-68
2021/09/22 03:32:51;;;;;;;13.03;10.67;;;;;;;13.66;46.87;95634.88;5035457;28;20970;-67
2021/09/22 03:35:19;;;;;;;12.67;9.93;;;;;;;13.64;47.24;95636.16;5014080;28;20457;-69
2021/09/22 03:37:46;;;;;;;12.47;10.93;;;;;;;13.43;47.32;95637.91;5011210;28;20445;-69
2021/09/22 03:40:14;;;;;;;10.97;9.87;;;;;;;13.15;47.93;95631.16;5025290;28;20443;-69
2021/09/22 03:42:41;;;;;;;12.87;11.03;;;;;;;13.23;47.48;95649.09;5016130;28;20448;-67
2021/09/22 03:45:12;;;;;;;11.90;10.60;;;;;;;13.34;47.70;95633.38;5014465;28;20495;-67
2021/09/22 03:47:39;;;;;;;11.67;9.90;;;;;;;13.32;47.66;95635.47;5024383;28;20444;-70
2021/09/22 03:50:07;;;;;;;12.20;10.70;;;;;;;13.57;46.95;95622.44;5010393;28;20492;-71
2021/09/22 03:52:54;;;;;;;11.43;10.27;;;;;;;13.37;47.63;95643.41;5012274;28;20449;-71
2021/09/22 03:55:21;;;;;;;11.73;10.03;;;;;;;13.43;47.64;95626.59;5009002;28;20441;-70
2021/09/22 03:57:48;;;;;;;14.03;10.47;;;;;;;13.52;47.50;95644.25;5001115;28;20499;-69
2021/09/22 04:00:16;;;;;;;12.17;10.60;;;;;;;13.39;47.59;95641.31;5008051;28;20974;-72
2021/09/22 04:02:43;;;;;;;14.33;10.87;;;;;;;13.75;47.33;95629.91;5006444;28;20452;-70
2021/09/22 04:05:11;;;;;;;11.33;9.97;;;;;;;13.82;47.07;95625.19;5008197;28;20437;-72
2021/09/22 04:07:39;;;;;;;13.50;10.10;;;;;;;13.79;47.45;95615.97;5022346;28;20459;-71
2021/09/22 04:10:06;;;;;;;12.13;10.23;;;;;;;13.67;47.51;95618.00;5010083;28;20492;-72
2021/09/22 04:12:34;;;;;;;12.27;9.97;;;;;;;13.86;47.19;95616.53;5007983;28;20441;-70
2021/09/22 04:15:06;;;;;;;13.60;10.00;;;;;;;13.84;46.75;95609.91;5008521;28;21046;-73
2021/09/22 04:17:33;;;;;;;14.03;10.27;;;;;;;13.59;47.60;95625.63;5008313;28;20441;-73
2021/09/22 04:20:00;;;;;;;12.40;10.30;;;;;;;13.52;47.82;95614.53;5009212;28;20437;-72
2021/09/22 04:22:29;;;;;;;12.37;10.80;;;;;;;13.78;47.60;95618.84;5009250;28;21044;-71
2021/09/22 04:24:56;;;;;;;12.13;9.67;;;;;;;13.58;47.56;95605.59;5009948;28;20864;-73
2021/09/22 04:27:23;;;;;;;12.03;10.43;;;;;;;13.69;47.69;95607.22;5021705;28;20825;-73
2021/09/22 04:30:00;;;;;;;10.87;9.77;;;;;;;13.47;47.93;95610.00;5008593;28;20878;-70
2021/09/22 04:32:45;;;;;;;11.97;10.10;;;;;;;13.67;47.80;95604.84;5009416;28;20559;-74
2021/09/22 04:35:41;;;;;;;13.70;10.57;;;;;;;13.60;47.53;95587.69;4970972;28;20451;-76
2021/09/22 04:38:27;;;;;;;13.57;9.83;;;;;;;13.21;48.42;95568.81;5004576;28;20956;-72
2021/09/22 04:41:16;;;;;;;11.13;9.83;;;;;;;13.49;48.06;95593.97;5028108;28;21007;-72
2021/09/22 04:44:02;;;;;;;11.87;10.53;;;;;;;13.46;47.98;95583.94;5009649;28;20502;-72
2021/09/22 04:46:48;;;;;;;13.47;10.43;;;;;;;13.39;48.43;95586.03;5010254;28;20444;-68
2021/09/22 04:49:33;;;;;;;11.50;10.30;;;;;;;13.29;48.02;95575.44;5011904;28;20456;-68
2021/09/22 04:52:30;;;;;;;11.30;10.10;;;;;;;13.39;48.06;95568.41;5020631;28;20472;-68
2021/09/22 04:55:15;;;;;;;10.53;9.50;;;;;;;13.31;47.60;95570.69;5015395;28;20443;-69
2021/09/22 04:58:02;;;;;;;12.23;9.73;;;;;;;13.44;47.70;95580.78;5011645;28;20630;-67
2021/09/22 05:00:47;;;;;;;12.43;10.20;;;;;;;13.03;47.75;95574.47;5011005;28;20443;-69
2021/09/22 05:03:47;;;;;;;15.17;10.23;;;;;;;13.07;47.88;95583.47;5007425;28;21014;-70
2021/09/22 05:06:34;;;;;;;11.97;10.10;;;;;;;13.04;48.41;95589.25;5007017;28;20467;-69
2021/09/22 05:09:19;;;;;;;14.87;10.60;;;;;;;13.12;48.55;95589.53;5026678;28;20459;-71
2021/09/22 05:12:07;;;;;;;13.13;9.73;;;;;;;13.37;48.54;95591.56;5021064;28;21040;-69
2021/09/22 05:14:52;;;;;;;10.93;9.83;;;;;;;13.11;49.37;95585.34;5024115;28;20820;-68
2021/09/22 05:17:38;;;;;;;11.73;10.53;;;;;;;12.93;49.32;95587.56;5016405;28;20451;-69
2021/09/22 05:20:23;;;;;;;12.77;10.40;;;;;;;12.91;48.94;95582.56;5020323;28;20559;-68
2021/09/22 05:23:09;;;;;;;13.70;10.53;;;;;;;13.13;48.80;95591.16;5012888;28;20964;-68
2021/09/22 05:25:54;;;;;;;13.23;10.50;;;;;;;12.97;48.89;95581.53;5012225;28;20448;-70
2021/09/22 05:28:40;;;;;;;10.57;8.57;;;;;;;12.91;47.87;95576.50;5023226;28;20545;-68
2021/09/22 05:31:25;;;;;;;11.20;9.23;;;;;;;12.96;48.37;95579.94;5012665;28;20443;-68
2021/09/22 05:34:11;;;;;;;15.00;10.10;;;;;;;13.06;48.45;95590.56;5026614;28;20446;-69
2021/09/22 05:36:57;;;;;;;11.97;9.73;;;;;;;13.17;48.32;95592.19;5012389;28;20458;-69
2021/09/22 05:39:42;;;;;;;10.90;9.50;;;;;;;13.31;48.14;95592.56;5013118;28;20444;-68
2021/09/22 05:42:28;;;;;;;13.43;9.80;;;;;;;13.35;47.17;95588.38;5012677;28;20444;-69
2021/09/22 05:45:14;;;;;;;12.57;9.70;;;;;;;13.13;46.93;95580.63;5012322;28;20562;-68
2021/09/22 05:47:59;;;;;;;10.57;9.47;;;;;;;13.30;46.46;95596.25;4999072;28;20451;-68
2021/09/22 05:50:45;;;;;;;11.37;9.53;;;;;;;13.07;46.07;95581.63;4996533;28;20544;-68
2021/09/22 05:53:31;;;;;;;9.93;8.93;;;;;;;13.09;45.96;95579.53;4995922;28;20453;-68
2021/09/22 05:56:33;;;;;;;9.90;8.57;;;;;;;12.96;46.14;95585.22;5035607;28;20440;-67
2021/09/22 05:59:19;;;;;;;13.50;9.17;;;;;;;13.35;45.99;95583.13;4998169;28;20559;-70
2021/09/22 06:02:04;;;;;;;9.77;8.77;;;;;;;13.17;45.63;95586.94;5000010;28;20822;-68
2021/09/22 06:05:07;;;;;;;9.57;8.23;;;;;;;12.86;46.13;95579.09;4995964;28;21103;-68
2021/09/22 06:07:53;;;;;;;12.90;9.07;;;;;;;13.03;45.82;95585.81;4994855;28;20970;-68
2021/09/22 06:10:40;;;;;;;11.90;9.40;;;;;;;12.95;46.29;95581.00;4992590;28;21358;-68
2021/09/22 06:13:21;;;;;;;10.47;9.23;;;;;;;13.55;45.75;95577.16;5017340;28;20445;-69
2021/09/22 06:15:53;;;;;;;12.83;9.07;;;;;;;13.49;46.46;95570.25;5009899;28;20503;-70
2021/09/22 06:18:24;;;;;;;14.67;9.10;;;;;;;13.39;45.78;95557.06;5007604;28;20442;-68
2021/09/22 06:20:51;;;;;;;9.83;8.33;;;;;;;13.43;45.22;95576.56;5007772;28;20445;-69
2021/09/22 06:23:19;;;;;;;11.50;8.57;;;;;;;13.65;45.62;95572.72;5005875;28;20442;-68
2021/09/22 06:25:46;;;;;;;31.50;20.93;;;;;;;13.48;46.29;95537.09;4992594;28;20446;-67
2021/09/22 06:28:13;;;;;;;33.90;24.37;;;;;;;13.75;45.71;95566.69;4991894;28;20445;-71
2021/09/22 06:30:43;;;;;;;25.67;17.53;;;;;;;13.81;45.63;95573.56;5011965;28;20447;-65
2021/09/22 06:33:10;;;;;;;177.67;138.40;;;;;;;13.77;45.63;95565.41;4994619;28;20448;-66
2021/09/22 06:35:59;;;;;;;22.60;17.67;;;;;;;13.86;45.12;95568.31;4992860;28;20484;-66
2021/09/22 06:38:30;;;;;;;10.43;8.70;;;;;;;13.84;44.97;95573.84;5006759;28;21025;-68
2021/09/22 06:41:02;;;;;;;11.97;8.43;;;;;;;13.38;44.98;95577.31;5009713;28;20442;-64
2021/09/22 06:43:33;;;;;;;12.00;8.00;;;;;;;13.72;44.48;95573.25;5008599;28;20446;-65
2021/09/22 06:46:01;;;;;;;10.90;8.20;;;;;;;13.58;45.33;95584.53;5008273;28;20441;-63
2021/09/22 06:48:28;;;;;;;10.47;8.37;;;;;;;13.60;44.55;95585.06;5005133;28;21099;-66
2021/09/22 06:50:55;;;;;;;12.83;8.67;;;;;;;13.77;44.43;95577.75;4993075;28;20437;-67
2021/09/22 06:53:22;;;;;;;15.03;8.30;;;;;;;13.98;44.25;95576.75;4999242;28;21088;-66
2021/09/22 06:55:49;;;;;;;12.30;8.90;;;;;;;14.12;43.63;95573.38;5000570;28;20445;-64
2021/09/22 06:58:16;;;;;;;11.47;8.47;;;;;;;13.88;43.91;95571.47;5002113;28;20472;-65
2021/09/22 07:00:42;;;;;;;10.30;7.90;;;;;;;13.97;44.14;95572.56;4993627;28;20458;-65
2021/09/22 07:03:11;;;;;;;13.77;8.20;;;;;;;13.96;44.02;95574.41;4992888;28;20464;-65
2021/09/22 07:05:39;;;;;;;10.03;8.63;;;;;;;13.79;44.66;95575.66;4997925;28;20476;-67
2021/09/22 07:08:07;;;;;;;18.77;12.53;;;;;;;13.80;44.62;95585.94;5010829;28;20468;-71
2021/09/22 07:10:36;;;;;;;21.60;17.47;;;;;;;13.80;44.12;95585.13;5010780;28;20452;-65
2021/09/22 07:13:04;;;;;;;11.23;8.83;;;;;;;13.50;44.38;95590.28;5010477;28;20449;-73
2021/09/22 07:15:31;;;;;;;10.90;8.33;;;;;;;13.53;45.02;95587.94;5010590;28;20462;-66
2021/09/22 07:17:59;;;;;;;10.83;8.53;;;;;;;13.39;45.20;95588.66;5009309;28;20845;-67
2021/09/22 07:20:26;;;;;;;10.80;8.63;;;;;;;13.19;45.43;95584.84;5010439;28;20472;-65
2021/09/22 07:22:53;;;;;;;11.57;8.83;;;;;;;13.39;45.29;95575.50;5008053;28;20441;-67
2021/09/22 07:25:21;;;;;;;11.17;8.07;;;;;;;13.21;45.43;95564.34;4990665;28;21042;-64
2021/09/22 07:27:48;;;;;;;11.30;7.67;;;;;;;12.61;45.79;95587.56;4993731;28;20449;-66
2021/09/22 07:30:15;;;;;;;39.83;29.10;;;;;;;13.11;45.93;95584.53;4993163;28;20449;-66
2021/09/22 07:32:49;;;;;;;31.00;23.37;;;;;;;13.60;44.43;95590.31;4998133;28;20659;-67
2021/09/22 07:35:17;;;;;;;11.60;8.17;;;;;;;13.46;44.65;95589.22;4989543;28;21020;-67
2021/09/22 07:37:44;;;;;;;12.87;8.53;;;;;;;13.26;44.85;95573.31;4989195;28;20453;-67
2021/09/22 07:40:12;;;;;;;9.47;7.97;;;;;;;13.34;44.87;95580.75;4997584;28;21004;-66
2021/09/22 07:42:39;;;;;;;10.17;8.80;;;;;;;13.26;44.58;95586.47;4998671;28;20433;-65
2021/09/22 07:45:07;;;;;;;12.83;8.07;;;;;;;13.52;44.69;95569.78;4996808;28;20484;-64
2021/09/22 07:47:34;;;;;;;10.80;8.60;;;;;;;13.70;44.88;95583.28;4993840;28;20445;-68
2021/09/22 07:50:03;;;;;;;10.80;8.13;;;;;;;13.72;44.44;95573.25;4996954;28;20491;-66
2021/09/22 07:52:30;;;;;;;10.63;8.43;;;;;;;13.82;43.73;95572.50;4994629;28;20841;-67
2021/09/22 07:54:57;;;;;;;12.97;7.83;;;;;;;13.30;44.28;95584.91;4991879;28;20544;-66
2021/09/22 07:57:23;;;;;;;10.30;7.83;;;;;;;13.68;43.86;95581.94;4996238;28;21090;-67
2021/09/22 07:59:50;;;;;;;10.97;8.10;;;;;;;13.69;43.84;95578.25;4992476;28;20449;-66
2021/09/22 08:02:18;;;;;;;14.03;8.77;;;;;;;13.94;43.76;95578.34;4991937;28;20445;-66
2021/09/22 08:04:45;;;;;;;9.30;7.97;;;;;;;14.11;43.38;95574.44;5002564;28;20542;-67
2021/09/22 08:07:12;;;;;;;17.37;8.43;;;;;;;13.88;44.30;95584.66;4995247;28;20452;-66
2021/09/22 08:09:39;;;;;;;18.50;9.40;;;;;;;13.82;43.64;95583.03;5001669;28;20455;-67
2021/09/22 08:12:06;;;;;;;15.50;8.77;;;;;;;13.84;44.48;95570.41;4996284;28;21257;-65
2021/09/22 08:14:35;;;;;;;11.10;8.40;;;;;;;13.97;43.75;95575.19;4993466;28;20441;-64
2021/09/22 08:17:04;;;;;;;11.43;8.87;;;;;;;13.87;44.98;95564.63;4993445;28;20454;-67
2021/09/22 08:19:33;;;;;;;12.27;9.37;;;;;;;13.66;43.38;95560.34;5012985;28;20508;-69
2021/09/22 08:22:00;;;;;;;12.60;9.10;;;;;;;13.60;43.80;95571.91;5001861;28;20516;-65
2021/09/22 08:24:28;;;;;;;13.03;9.40;;;;;;;13.66;44.06;95557.72;5007943;28;20575;-67
2021/09/22 08:26:56;;;;;;;75.97;64.17;;;;;;;13.62;43.95;95557.44;4988958;28;20442;-69
2021/09/22 08:29:22;;;;;;;89.17;79.33;;;;;;;13.58;43.58;95550.28;4993779;28;20440;-68
2021/09/22 08:31:50;;;;;;;11.00;8.73;;;;;;;13.58;43.86;95545.03;5004908;28;20500;-66
2021/09/22 08:34:20;;;;;;;11.77;9.03;;;;;;;13.95;44.09;95556.22;4997883;28;20507;-70
2021/09/22 08:36:46;;;;;;;13.10;9.30;;;;;;;14.12;43.31;95556.78;4997675;28;20453;-67
2021/09/22 08:39:15;;;;;;;13.67;9.90;;;;;;;13.86;43.75;95553.31;4999427;28;20452;-69
2021/09/22 08:41:43;;;;;;;14.17;9.77;;;;;;;14.03;43.41;95556.50;4997474;28;20467;-76
2021/09/22 08:44:11;;;;;;;12.93;9.97;;;;;;;14.06;43.39;95542.81;4996674;28;20449;-62
2021/09/22 08:46:40;;;;;;;16.27;9.97;;;;;;;14.13;43.09;95537.28;4993649;28;20537;-70
2021/09/22 08:49:08;;;;;;;13.07;9.90;;;;;;;14.31;43.21;95549.97;4996005;28;20437;-72
2021/09/22 08:51:36;;;;;;;71.53;51.23;;;;;;;14.50;42.55;95529.97;4993374;28;20448;-68
2021/09/22 08:54:04;;;;;;;48.43;39.07;;;;;;;14.25;42.83;95532.53;4997210;28;20440;-65
2021/09/22 08:56:31;;;;;;;12.30;10.20;;;;;;;14.25;42.46;95527.25;4996387;28;21022;-70
2021/09/22 08:58:58;;;;;;;12.93;9.63;;;;;;;14.59;42.62;95535.50;4999523;28;20448;-66
2021/09/22 09:01:26;;;;;;;12.47;9.73;;;;;;;14.59;42.39;95530.22;4994991;28;20511;-68
2021/09/22 09:03:54;;;;;;;13.33;9.87;;;;;;;14.89;41.93;95523.06;4992493;28;21369;-67
2021/09/22 09:06:22;;;;;;;14.83;8.53;;;;;;;14.69;43.00;95525.72;4996551;28;20571;-65
2021/09/22 09:08:55;;;;;;;11.87;9.13;;;;;;;14.84;41.73;95525.72;5005257;28;20441;-66
2021/09/22 09:11:37;;;;;;;11.27;8.27;;;;;;;14.18;42.46;95532.81;5005253;28;20484;-69
2021/09/22 09:14:09;;;;;;;12.00;8.13;;;;;;;14.68;41.79;95523.34;4999218;28;20539;-70
2021/09/22 09:16:42;;;;;;;9.83;8.27;;;;;;;14.73;42.84;95521.50;4993491;28;20998;-63
2021/09/22 09:19:14;;;;;;;9.90;8.60;;;;;;;14.66;42.66;95515.72;4995208;28;20461;-68
2021/09/22 09:22:03;;;;;;;10.40;8.67;;;;;;;14.54;42.42;95523.13;5000681;28;20453;-67
2021/09/22 09:24:40;;;;;;;15.27;8.47;;;;;;;14.65;42.37;95508.84;4996317;28;20575;-66
2021/09/22 09:27:30;;;;;;;12.13;8.57;;;;;;;14.74;41.72;95501.19;4997944;28;20966;-69
2021/09/22 09:29:58;;;;;;;9.80;8.10;;;;;;;14.63;42.21;95504.91;4995751;28;21065;-65
2021/09/22 09:32:30;;;;;;;10.37;8.17;;;;;;;14.89;42.72;95495.91;5001484;28;20441;-65
2021/09/22 09:35:05;;;;;;;25.87;21.33;;;;;;;14.43;41.65;95505.72;4996343;28;21029;-67
2021/09/22 09:37:46;;;;;;;71.10;58.47;;;;;;;14.74;42.57;95495.91;4996304;28;20456;-71
2021/09/22 09:40:15;;;;;;;9.60;8.37;;;;;;;14.58;42.56;95492.50;4997880;28;20445;-68
2021/09/22 09:42:43;;;;;;;11.50;7.47;;;;;;;14.63;42.62;95505.69;4992614;28;20438;-70
2021/09/22 09:45:11;;;;;;;14.33;7.43;;;;;;;14.15;43.07;95514.09;4994284;28;20591;-77
2021/09/22 09:47:39;;;;;;;11.57;7.67;;;;;;;13.68;43.34;95505.56;4993651;28;20852;-68
2021/09/22 09:50:22;;;;;;;13.70;7.47;;;;;;;14.05;42.91;95500.91;4992969;28;20492;-71
2021/09/22 09:52:53;;;;;;;10.63;8.00;;;;;;;14.38;42.74;95495.13;4993701;28;20446;-66
2021/09/22 09:55:23;;;;;;;9.87;8.00;;;;;;;14.33;42.46;95502.25;4991694;28;20446;-67
2021/09/22 09:57:51;;;;;;;10.83;7.50;;;;;;;13.83;43.07;95500.34;4992356;28;20851;-72
2021/09/22 10:00:41;;;;;;;10.37;7.83;;;;;;;13.74;44.19;95507.94;4993413;28;20453;-70
2021/09/22 10:03:09;;;;;;;13.93;8.27;;;;;;;13.90;44.19;95492.97;5001213;28;20449;-72
2021/09/22 10:05:36;;;;;;;10.47;7.90;;;;;;;13.55;44.12;95488.41;5000124;28;20516;-67
2021/09/22 10:08:04;;;;;;;11.77;7.97;;;;;;;13.61;44.30;95500.53;5002988;28;20951;-69
2021/09/22 10:10:32;;;;;;;9.43;7.30;;;;;;;13.50;44.83;95496.31;4998005;28;20879;-68
2021/09/22 10:13:00;;;;;;;11.13;7.87;;;;;;;13.64;45.23;95496.59;4998666;28;20499;-71
2021/09/22 10:15:29;;;;;;;11.43;7.97;;;;;;;13.72;44.30;95488.19;4998163;28;20449;-69
2021/09/22 10:17:57;;;;;;;139.60;114.17;;;;;;;14.05;45.03;95493.00;4991905;28;20826;-70
2021/09/22 10:20:24;;;;;;;53.17;37.27;;;;;;;14.08;44.67;95489.84;4992895;28;20830;-67
2021/09/22 10:22:52;;;;;;;11.10;8.93;;;;;;;13.89;43.60;95478.22;5004127;28;20451;-71
2021/09/22 10:25:21;;;;;;;15.00;10.73;;;;;;;14.19;43.83;95484.31;4998752;28;20477;-66
2021/09/22 10:27:49;;;;;;;13.03;8.40;;;;;;;14.18;43.21;95476.66;5000487;28;20452;-69
2021/09/22 10:30:17;;;;;;;14.67;12.47;;;;;;;14.34;43.04;95478.28;5001294;28;20476;-68
2021/09/22 10:32:49;;;;;;;13.00;8.07;;;;;;;14.44;42.49;95478.28;4998161;28;20440;-67
2021/09/22 10:35:40;;;;;;;31.67;28.67;;;;;;;14.40;43.83;95479.84;4991161;28;20977;-67
2021/09/22 10:38:36;;;;;;;13.70;8.47;;;;;;;14.70;42.47;95476.41;4992193;28;20442;-68
2021/09/22 10:41:03;;;;;;;11.07;9.53;;;;;;;14.75;44.01;95458.72;5000965;28;20442;-72
2021/09/22 10:43:37;;;;;;;14.13;12.57;;;;;;;14.60;44.71;95464.00;4996668;28;20441;-75
2021/09/22 10:46:12;;;;;;;15.93;12.87;;;;;;;14.33;43.74;95445.06;4995369;28;20511;-70
2021/09/22 10:48:42;;;;;;;11.40;8.57;;;;;;;14.23;43.86;95452.97;5002374;28;20455;-70
2021/09/22 10:51:10;;;;;;;12.43;8.53;;;;;;;14.19;44.04;95455.34;4997801;28;20567;-75
2021/09/22 10:53:40;;;;;;;24.53;22.23;;;;;;;14.55;44.93;95450.03;4992469;28;20457;-72
2021/09/22 10:56:49;;;;;;;22.20;19.63;;;;;;;14.45;44.54;95450.84;5004637;28;20499;-71
2021/09/22 10:59:29;;;;;;;13.00;8.87;;;;;;;14.57;42.87;95451.38;4993965;28;20458;-75
2021/09/22 11:01:57;;;;;;;13.97;11.43;;;;;;;14.25;43.45;95451.63;5004506;28;20441;-72
2021/09/22 11:04:25;;;;;;;57.07;51.20;;;;;;;14.25;43.70;95450.81;4995139;28;20458;-70
2021/09/22 11:06:54;;;;;;;24.90;18.57;;;;;;;13.92;43.64;95446.84;5006971;28;20480;-72
2021/09/22 11:09:24;;;;;;;27.17;24.27;;;;;;;14.48;44.41;95455.59;4998859;28;20974;-71
2021/09/22 11:12:00;;;;;;;23.80;21.50;;;;;;;14.67;44.54;95461.13;5002938;28;20459;-66
2021/09/22 11:14:30;;;;;;;21.30;19.03;;;;;;;14.45;44.38;95450.84;5005998;28;20445;-71
2021/09/22 11:16:58;;;;;;;15.93;9.87;;;;;;;14.74;43.27;95456.34;5009590;28;20437;-74
2021/09/22 11:19:26;;;;;;;34.03;31.03;;;;;;;14.95;43.10;95465.78;5007613;28;20819;-72
2021/09/22 11:21:54;;;;;;;21.17;19.03;;;;;;;14.34;43.44;95465.13;5002568;28;20475;-74
2021/09/22 11:24:26;;;;;;;15.33;12.13;;;;;;;14.76;42.94;95456.88;5006785;28;20994;-71
2021/09/22 11:26:57;;;;;;;10.10;8.93;;;;;;;14.92;42.58;95453.94;4992077;28;20495;-72
2021/09/22 11:29:35;;;;;;;8.83;7.63;;;;;;;15.02;41.82;95458.38;5006696;28;20449;-71
2021/09/22 11:32:07;;;;;;;12.67;8.40;;;;;;;14.87;42.54;95451.28;5000705;28;21310;-71
2021/09/22 11:34:39;;;;;;;9.67;7.50;;;;;;;14.54;42.59;95444.00;5009860;28;20476;-73
2021/09/22 11:37:12;;;;;;;8.73;7.57;;;;;;;14.56;43.25;95447.13;4999756;28;20534;-71
2021/09/22 11:39:41;;;;;;;11.07;7.60;;;;;;;14.71;42.88;95446.31;5013939;28;20460;-70
2021/09/22 11:42:10;;;;;;;10.83;7.67;;;;;;;14.18;43.13;95443.19;4999853;28;20436;-72
2021/09/22 11:44:39;;;;;;;7.87;6.83;;;;;;;13.85;43.20;95424.50;5013779;28;20448;-73
2021/09/22 11:47:09;;;;;;;11.63;6.37;;;;;;;14.09;43.15;95446.59;5009832;28;20853;-74